NCAR-RAP Real-Time Weather Data

Output produced by METARs form (12 August 2020  18:35 UTC)
found at http://weather.rap.ucar.edu/surface/
 
KABR 121753Z AUTO 12005KT 10SM FEW024 26/18 A2988 RMK AO2 SLP110 T02610183 10267 20183 58003
KABR 121653Z AUTO 09008KT 10SM CLR 25/18 A2990 RMK AO2 SLP119 T02500178
KABR 121553Z AUTO 06010KT 10SM CLR 24/18 A2990 RMK AO2 SLP118 T02440178
KABR 121453Z AUTO 03005KT 10SM CLR 22/17 A2989 RMK AO2 SLP115 T02220167 51037
KABR 121353Z AUTO 34008KT 10SM CLR 21/17 A2988 RMK AO2 SLP112 T02060167 TSNO
KABR 121253Z AUTO 31008KT 10SM CLR 19/16 A2987 RMK AO2 SLP106 T01890161 TSNO
KABR 121153Z AUTO 16013KT 10SM CLR 19/16 A2978 RMK AO2 PRESFR SLP075 60049 70050 T01890161 10222 20178 58045 TSNO
KABR 121053Z AUTO 13005KT 10SM FEW110 18/16 A2985 RMK AO2 RAE33 SLP102 P0002 T01780161 TSNO
KABR 120953Z AUTO 12011KT 10SM -RA OVC100 18/16 A2991 RMK AO2 TSE05B13E28 SLP120 P0004 T01830161 TSNO
KABR 120934Z AUTO 10011KT 10SM VCTS -RA BKN090 OVC110 18/16 A2989 RMK AO2 LTG DSNT ALQDS TSE05B13E28 P0003 T01830161
KABR 120919Z AUTO 10006KT 10SM -TSRA BKN100 OVC120 18/16 A2991 RMK AO2 LTG DSNT ALQDS TSE05B13 P0003 T01830161
KABR 120911Z AUTO 06007KT 10SM VCTS -RA FEW070 BKN095 OVC110 18/17 A2989 RMK AO2 LTG DSNT ALQDS TSE05 PRESFR P0002 T01830167
KABR 120853Z AUTO 02012KT 6SM +TSRA BR SCT037 BKN070 OVC110 18/17 A2992 RMK AO2 PK WND 26032/0817 LTG DSNT ALQDS RAB15 TSB10 SLP123 P0043 60043 T01830167 53015
KABR 120838Z AUTO 34010G21KT 3SM +TSRA BR BKN037 BKN049 OVC070 19/17 A2994 RMK AO2 PK WND 26032/0817 LTG DSNT ALQDS RAB15 TSB10 P0034 T01890167
KABR 120832Z AUTO 33010G21KT 1 1/2SM +TSRA FEW023 BKN032 OVC055 19/16 A2993 RMK AO2 PK WND 26032/0817 LTG DSNT ALQDS RAB15 TSB10 P0021 T01890161
KABR 120828Z AUTO 33010G22KT 1 1/4SM +TSRA FEW020 BKN028 OVC055 19/16 A2995 RMK AO2 PK WND 26032/0817 LTG DSNT ALQDS RAB15 TSB10 P0009 T01890161
KABR 120825Z AUTO 30008G32KT 1 3/4SM +TSRA SCT023 BKN048 OVC055 19/17 A2997 RMK AO2 PK WND 26032/0817 LTG DSNT ALQDS RAB15 TSB10 P0002 T01940167
KABR 120810Z AUTO 26018G27KT 10SM TS FEW028 BKN050 22/18 A2993 RMK AO2 PK WND 26027/0810 LTG DSNT ALQDS TSB10 T02220178
KABR 120753Z AUTO 00000KT 10SM FEW055 22/18 A2989 RMK AO2 LTG DSNT SW-N SLP113 T02220183
KABR 120653Z AUTO 14007KT 10SM CLR 22/18 A2988 RMK AO2 SLP111 T02170183
KABR 120553Z AUTO 13005KT 10SM CLR 21/18 A2987 RMK AO2 SLP109 T02110178 10283 20206 402940139 58008
KABR 120453Z AUTO 13007KT 10SM CLR 21/17 A2988 RMK AO2 SLP113 T02060172
KABR 120353Z AUTO 15008KT 10SM CLR 21/17 A2991 RMK AO2 SLP121 T02110167
KABR 120253Z AUTO 14007KT 10SM CLR 21/17 A2990 RMK AO2 SLP118 T02060172 53013
KABR 120153Z AUTO 14005KT 10SM CLR 22/17 A2986 RMK AO2 SLP107 T02170172
KABR 120053Z AUTO 18008KT 9SM CLR 27/19 A2986 RMK AO2 SLP106 T02670189
KABR 112353Z AUTO 17008KT 10SM CLR 28/19 A2986 RMK AO2 SLP104 T02830194 10294 20228 58001
KABR 112253Z AUTO 18013KT 10SM CLR 29/19 A2986 RMK AO2 SLP106 T02890189
KABR 112153Z AUTO 18011KT 10SM CLR 29/18 A2986 RMK AO2 SLP106 T02940178